Time;durP1;ratioP1;P1;durP2;ratioP2;P2;SDS_P1;SDS_P2;PMS_P1;PMS_P2;Temp;Humidity;BMP_temperature;BMP_pressure;BME280_temperature;BME280_humidity;BME280_pressure;Samples;Min_cycle;Max_cycle;Signal;HPM_P1;HPM_P2
2021/09/09 00:00:13;;;;;;;21.75;15.93;;;;;;;13.19;77.66;101761.31;5044939;28;20028;-57
2021/09/09 00:02:39;;;;;;;25.00;17.58;;;;;;;13.13;77.88;101753.38;5046779;28;20035;-57
2021/09/09 00:05:06;;;;;;;21.20;15.27;;;;;;;13.09;78.04;101755.69;5047358;28;20028;-56
2021/09/09 00:07:32;;;;;;;20.75;14.77;;;;;;;13.06;78.09;101755.38;5042768;28;20033;-55
2021/09/09 00:09:58;;;;;;;21.08;14.75;;;;;;;13.00;78.11;101752.56;5045683;28;20655;-56
2021/09/09 00:12:24;;;;;;;17.50;13.68;;;;;;;13.01;77.97;101751.53;5042682;28;20086;-57
2021/09/09 00:14:50;;;;;;;23.25;14.25;;;;;;;12.96;78.01;101742.53;5046393;28;20514;-56
2021/09/09 00:17:15;;;;;;;19.85;14.88;;;;;;;12.89;78.01;101745.34;5045488;28;20423;-55
2021/09/09 00:19:41;;;;;;;17.60;13.80;;;;;;;12.86;78.13;101742.34;5046791;28;20033;-57
2021/09/09 00:22:06;;;;;;;21.27;15.40;;;;;;;12.85;78.34;101743.38;5047184;28;20035;-57
2021/09/09 00:24:32;;;;;;;20.45;14.00;;;;;;;12.81;78.63;101740.38;5045501;28;20024;-56
2021/09/09 00:26:57;;;;;;;23.60;15.95;;;;;;;12.79;78.57;101742.47;5050372;28;21414;-56
2021/09/09 00:29:23;;;;;;;26.98;17.85;;;;;;;12.74;78.99;101747.72;5045978;28;20036;-55
2021/09/09 00:31:49;;;;;;;24.08;16.23;;;;;;;12.72;79.24;101744.47;5045821;28;20502;-55
2021/09/09 00:34:14;;;;;;;20.77;15.38;;;;;;;12.73;79.02;101739.91;5046134;28;20029;-57
2021/09/09 00:36:40;;;;;;;22.38;15.85;;;;;;;12.69;79.07;101740.38;5043918;28;20470;-55
2021/09/09 00:39:05;;;;;;;21.85;15.70;;;;;;;12.66;79.28;101754.31;5047106;28;20447;-56
2021/09/09 00:41:31;;;;;;;21.80;15.90;;;;;;;12.64;79.17;101747.53;5047204;28;20167;-55
2021/09/09 00:43:57;;;;;;;23.83;15.13;;;;;;;12.62;79.12;101744.28;5046666;28;20032;-57
2021/09/09 00:46:23;;;;;;;22.50;15.75;;;;;;;12.54;79.49;101745.44;5045870;28;20036;-56
2021/09/09 00:48:50;;;;;;;20.70;14.77;;;;;;;12.54;79.31;101741.94;5048095;28;20052;-57
2021/09/09 00:51:16;;;;;;;19.15;15.63;;;;;;;12.47;79.59;101743.94;5044565;28;20059;-56
2021/09/09 00:53:42;;;;;;;23.75;15.57;;;;;;;12.43;79.51;101745.47;5045039;28;20036;-56
2021/09/09 00:56:08;;;;;;;20.13;13.32;;;;;;;12.40;79.79;101733.34;5045113;28;20029;-57
2021/09/09 00:58:36;;;;;;;18.63;14.65;;;;;;;12.36;79.55;101741.03;5045921;28;20040;-57
2021/09/09 01:01:02;;;;;;;20.05;14.35;;;;;;;12.33;79.70;101738.81;5045565;28;20123;-57
2021/09/09 01:03:27;;;;;;;18.98;13.70;;;;;;;12.31;79.61;101742.78;5044459;28;20034;-57
2021/09/09 01:05:53;;;;;;;25.58;15.20;;;;;;;12.27;79.68;101739.78;5046001;28;20625;-57
2021/09/09 01:08:19;;;;;;;20.75;14.82;;;;;;;12.23;79.64;101741.28;5046219;28;20402;-56
2021/09/09 01:10:44;;;;;;;21.00;13.93;;;;;;;12.17;79.75;101742.22;5046008;28;20028;-57
2021/09/09 01:13:10;;;;;;;23.40;15.48;;;;;;;12.15;79.66;101741.63;5046516;28;20048;-55
2021/09/09 01:15:44;;;;;;;21.63;15.55;;;;;;;12.12;79.85;101739.41;5043588;28;20386;-57
2021/09/09 01:18:12;;;;;;;21.20;15.77;;;;;;;12.12;80.30;101742.09;5046478;28;20035;-56
2021/09/09 01:20:38;;;;;;;26.85;16.33;;;;;;;12.10;80.56;101744.22;5044880;28;20028;-57
2021/09/09 01:23:04;;;;;;;23.48;16.10;;;;;;;12.09;80.90;101745.25;5043724;28;20035;-57
2021/09/09 01:25:30;;;;;;;21.55;15.20;;;;;;;12.03;80.82;101749.72;5045978;28;20024;-57
2021/09/09 01:27:55;;;;;;;26.40;16.45;;;;;;;12.02;81.11;101749.91;5044222;28;20074;-56
2021/09/09 01:30:21;;;;;;;26.02;16.70;;;;;;;12.00;81.03;101749.34;5044539;28;20028;-56
2021/09/09 01:32:46;;;;;;;23.13;15.75;;;;;;;11.99;81.16;101750.38;5043517;28;21005;-57
2021/09/09 01:35:12;;;;;;;24.33;16.25;;;;;;;11.94;81.23;101743.03;5044809;28;20642;-57
2021/09/09 01:37:37;;;;;;;20.92;15.23;;;;;;;11.92;81.07;101744.31;5046471;28;20095;-55
2021/09/09 01:40:04;;;;;;;25.20;15.40;;;;;;;11.90;80.83;101733.00;5045315;28;20427;-57
2021/09/09 01:42:29;;;;;;;23.88;14.13;;;;;;;11.84;81.03;101734.72;5044595;28;20058;-57
2021/09/09 01:44:55;;;;;;;24.75;16.50;;;;;;;11.80;81.00;101734.38;5044924;28;20115;-56
2021/09/09 01:47:21;;;;;;;22.25;13.73;;;;;;;11.75;81.19;101742.28;5043956;28;20203;-56
2021/09/09 01:49:46;;;;;;;23.17;14.45;;;;;;;11.72;80.90;101734.69;5045193;28;20044;-57
2021/09/09 01:52:12;;;;;;;17.92;13.57;;;;;;;11.68;81.08;101733.53;5043752;28;20032;-56
2021/09/09 01:54:38;;;;;;;22.02;14.75;;;;;;;11.63;81.04;101730.69;5044972;28;20082;-57
2021/09/09 01:57:04;;;;;;;23.30;14.68;;;;;;;11.61;81.10;101735.50;5043690;28;20043;-56
2021/09/09 01:59:30;;;;;;;24.02;15.15;;;;;;;11.57;81.41;101736.19;5044958;28;20048;-56
2021/09/09 02:01:55;;;;;;;23.77;16.05;;;;;;;11.55;81.41;101733.75;5045394;28;20024;-55
2021/09/09 02:04:21;;;;;;;24.95;16.15;;;;;;;11.51;81.54;101737.94;5044688;28;20409;-56
2021/09/09 02:06:46;;;;;;;24.13;14.95;;;;;;;11.48;81.53;101739.19;5045705;28;20555;-56
2021/09/09 02:09:12;;;;;;;28.50;16.70;;;;;;;11.46;81.78;101737.78;5043223;28;20590;-56
2021/09/09 02:11:37;;;;;;;28.77;17.90;;;;;;;11.44;81.62;101732.66;5044162;28;20032;-57
2021/09/09 02:14:03;;;;;;;23.38;15.98;;;;;;;11.42;81.77;101729.38;5042277;28;20082;-57
2021/09/09 02:16:29;;;;;;;26.70;16.27;;;;;;;11.39;81.90;101723.66;5042275;28;20086;-56
2021/09/09 02:18:55;;;;;;;25.05;17.10;;;;;;;11.39;82.02;101724.47;5044973;28;20059;-56
2021/09/09 02:21:21;;;;;;;26.05;17.33;;;;;;;11.36;82.02;101719.56;5042579;28;20029;-57
2021/09/09 02:23:47;;;;;;;24.88;17.00;;;;;;;11.31;82.22;101718.59;5044026;28;20028;-57
2021/09/09 02:26:12;;;;;;;24.88;17.42;;;;;;;11.29;82.60;101720.69;5044630;28;21188;-57
2021/09/09 02:28:38;;;;;;;26.00;16.00;;;;;;;11.28;82.46;101727.13;5042303;28;20061;-55
2021/09/09 02:31:03;;;;;;;27.60;17.50;;;;;;;11.29;82.63;101720.69;5043632;28;20036;-57
2021/09/09 02:33:29;;;;;;;27.02;16.40;;;;;;;11.26;82.88;101721.97;5041871;28;20043;-56
2021/09/09 02:35:54;;;;;;;26.30;17.30;;;;;;;11.27;82.81;101718.25;5042986;28;20037;-57
2021/09/09 02:38:20;;;;;;;27.67;17.40;;;;;;;11.26;82.63;101716.63;5045722;28;20032;-56
2021/09/09 02:40:45;;;;;;;28.52;18.42;;;;;;;11.22;82.80;101717.31;5044208;28;20438;-57
2021/09/09 02:43:11;;;;;;;26.13;17.48;;;;;;;11.17;83.02;101710.78;5043361;28;20031;-56
2021/09/09 02:45:37;;;;;;;26.15;17.65;;;;;;;11.14;82.66;101708.56;5044229;28;20032;-54
2021/09/09 02:48:02;;;;;;;26.70;17.17;;;;;;;11.12;83.18;101707.94;5044792;28;20029;-56
2021/09/09 02:50:29;;;;;;;25.00;15.73;;;;;;;11.09;82.99;101708.41;5042613;28;20613;-56
2021/09/09 02:52:54;;;;;;;30.05;17.42;;;;;;;11.08;82.60;101706.75;5042879;28;21499;-57
2021/09/09 02:55:20;;;;;;;24.02;14.95;;;;;;;11.04;82.84;101702.91;5043132;28;20024;-56
2021/09/09 02:57:45;;;;;;;25.38;15.73;;;;;;;10.98;82.66;101700.31;5043959;28;20082;-56
2021/09/09 03:00:11;;;;;;;23.75;14.32;;;;;;;10.95;82.87;101695.41;5043196;28;20059;-57
2021/09/09 03:02:37;;;;;;;26.63;16.02;;;;;;;10.86;82.77;101700.25;5044047;28;20032;-56
2021/09/09 03:05:03;;;;;;;24.90;12.13;;;;;;;10.83;82.56;101706.09;5044277;28;20513;-57
2021/09/09 03:07:28;;;;;;;21.90;12.93;;;;;;;10.79;82.51;101704.91;5042543;28;20037;-55
2021/09/09 03:09:54;;;;;;;24.00;15.00;;;;;;;10.74;82.77;101702.06;5044245;28;20025;-56
2021/09/09 03:12:19;;;;;;;32.45;17.08;;;;;;;10.65;83.50;101706.13;5043102;28;20257;-57
2021/09/09 03:14:45;;;;;;;31.25;15.68;;;;;;;10.66;83.20;101697.03;5042399;28;20421;-57
2021/09/09 03:17:11;;;;;;;24.23;14.45;;;;;;;10.67;83.42;101693.31;5042029;28;20028;-55
2021/09/09 03:19:38;;;;;;;23.27;12.90;;;;;;;10.64;83.28;101693.75;5042962;28;20040;-56
2021/09/09 03:22:04;;;;;;;21.45;14.65;;;;;;;10.59;83.05;101689.91;5042675;28;20025;-56
2021/09/09 03:24:30;;;;;;;24.88;15.35;;;;;;;10.58;83.38;101682.88;5055582;28;20021;-56
2021/09/09 03:26:55;;;;;;;23.58;15.25;;;;;;;10.54;83.10;101695.09;5046149;28;20541;-56
2021/09/09 03:29:21;;;;;;;25.17;16.52;;;;;;;10.49;83.45;101694.13;5047086;28;20105;-57
2021/09/09 03:31:46;;;;;;;20.52;14.23;;;;;;;10.46;83.55;101689.22;5046130;28;21007;-56
2021/09/09 03:34:11;;;;;;;23.60;14.38;;;;;;;10.42;83.67;101691.53;5045082;28;20032;-57
2021/09/09 03:36:37;;;;;;;20.52;14.75;;;;;;;10.40;83.41;101693.59;5045945;28;20028;-55
2021/09/09 03:39:03;;;;;;;23.95;15.40;;;;;;;10.38;83.81;101684.97;5048299;28;20426;-56
2021/09/09 03:41:28;;;;;;;24.80;16.45;;;;;;;10.37;83.64;101685.19;5043439;28;20032;-57
2021/09/09 03:43:54;;;;;;;20.42;14.43;;;;;;;10.36;83.52;101687.06;5046258;28;20020;-56
2021/09/09 03:46:19;;;;;;;26.58;15.75;;;;;;;10.29;83.66;101681.78;5048268;28;20024;-56
2021/09/09 03:48:45;;;;;;;19.33;13.25;;;;;;;10.25;83.71;101679.78;5048223;28;20097;-57
2021/09/09 03:51:10;;;;;;;22.52;14.57;;;;;;;10.24;83.40;101672.78;5045910;28;20280;-60
2021/09/09 03:53:36;;;;;;;20.10;14.30;;;;;;;10.21;83.50;101682.06;5044466;28;20114;-56
2021/09/09 03:56:01;;;;;;;21.33;14.82;;;;;;;10.17;83.88;101680.84;5046509;28;20403;-56
2021/09/09 03:58:27;;;;;;;19.70;14.10;;;;;;;10.16;83.80;101676.53;5044257;28;20268;-57
2021/09/09 04:00:52;;;;;;;22.73;15.43;;;;;;;10.15;83.96;101684.78;5046097;28;20024;-55
2021/09/09 04:03:18;;;;;;;22.13;14.98;;;;;;;10.13;83.78;101690.38;5046416;28;20028;-57
2021/09/09 04:05:43;;;;;;;27.75;16.75;;;;;;;10.12;83.84;101683.38;5045532;28;20054;-56
2021/09/09 04:08:09;;;;;;;23.92;14.50;;;;;;;10.06;83.90;101681.59;5045603;28;20067;-56
2021/09/09 04:10:35;;;;;;;21.38;13.75;;;;;;;10.04;83.86;101686.34;5046472;28;20106;-56
2021/09/09 04:13:00;;;;;;;22.80;15.90;;;;;;;10.00;84.09;101688.66;5047982;28;20043;-56
2021/09/09 04:15:26;;;;;;;21.63;15.93;;;;;;;10.01;84.01;101676.06;5046349;28;20501;-57
2021/09/09 04:17:51;;;;;;;21.90;14.23;;;;;;;10.01;84.00;101670.72;5045988;28;20039;-56
2021/09/09 04:20:17;;;;;;;24.40;15.93;;;;;;;9.99;83.77;101687.00;5046077;28;20036;-56
2021/09/09 04:22:43;;;;;;;22.40;16.00;;;;;;;9.96;84.25;101678.59;5042967;28;20035;-56
2021/09/09 04:25:09;;;;;;;25.63;16.40;;;;;;;9.93;84.17;101677.19;5035455;28;20115;-58
2021/09/09 04:27:35;;;;;;;26.83;15.60;;;;;;;9.92;84.06;101675.56;5041679;28;20474;-56
2021/09/09 04:30:01;;;;;;;22.33;14.73;;;;;;;9.90;84.31;101683.00;5043546;28;20020;-56
2021/09/09 04:32:26;;;;;;;22.27;14.98;;;;;;;9.95;84.08;101677.78;5040014;28;20461;-56
2021/09/09 04:34:52;;;;;;;24.40;15.20;;;;;;;9.91;84.22;101671.25;5042365;28;20124;-56
2021/09/09 04:37:18;;;;;;;25.00;16.55;;;;;;;9.88;84.62;101665.53;5041605;28;20464;-57
2021/09/09 04:39:44;;;;;;;28.10;16.30;;;;;;;9.86;84.63;101671.06;5043964;28;20032;-57
2021/09/09 04:42:10;;;;;;;31.23;18.48;;;;;;;9.85;84.51;101665.94;5042964;28;20051;-54
2021/09/09 04:44:36;;;;;;;25.40;16.48;;;;;;;9.84;84.76;101667.78;5045467;28;20400;-57
2021/09/09 04:47:01;;;;;;;23.27;15.20;;;;;;;9.85;84.70;101660.59;5044818;28;20530;-56
2021/09/09 04:49:27;;;;;;;24.33;15.93;;;;;;;9.85;85.01;101671.28;5043510;28;20414;-56
2021/09/09 04:51:53;;;;;;;25.75;14.50;;;;;;;9.85;84.58;101663.25;5044334;28;20070;-57
2021/09/09 04:54:19;;;;;;;23.15;14.50;;;;;;;9.87;84.64;101667.34;5059057;28;20033;-56
2021/09/09 04:56:44;;;;;;;21.08;13.75;;;;;;;9.89;84.40;101659.13;5043360;28;20028;-56
2021/09/09 04:59:10;;;;;;;28.85;17.48;;;;;;;9.90;84.73;101655.41;5042257;28;20118;-56
2021/09/09 05:01:35;;;;;;;22.98;15.15;;;;;;;9.94;85.01;101660.09;5042617;28;20032;-56
2021/09/09 05:04:01;;;;;;;19.33;13.80;;;;;;;10.01;84.70;101660.00;5041932;28;20039;-57
2021/09/09 05:06:26;;;;;;;24.33;14.75;;;;;;;10.10;84.57;101655.19;5042755;28;20055;-54
2021/09/09 05:08:52;;;;;;;20.52;14.20;;;;;;;10.20;83.93;101650.13;5042257;28;20032;-56
2021/09/09 05:11:17;;;;;;;21.45;14.63;;;;;;;10.32;83.95;101651.06;5042786;28;20078;-55
2021/09/09 05:13:44;;;;;;;20.13;14.23;;;;;;;10.44;83.24;101651.94;5040708;28;20027;-56
2021/09/09 05:16:10;;;;;;;20.65;14.05;;;;;;;10.58;83.00;101642.69;5041857;28;20025;-57
2021/09/09 05:18:36;;;;;;;28.33;16.02;;;;;;;10.70;82.83;101644.59;5043398;28;20032;-57
2021/09/09 05:21:02;;;;;;;29.98;17.58;;;;;;;10.84;82.84;101649.56;5042307;28;20063;-57
2021/09/09 05:23:27;;;;;;;32.50;16.50;;;;;;;10.98;82.36;101634.09;5043113;28;20032;-57
2021/09/09 05:25:53;;;;;;;23.38;14.02;;;;;;;11.09;82.63;101641.34;5043291;28;20625;-56
2021/09/09 05:28:19;;;;;;;26.98;15.85;;;;;;;11.24;82.73;101634.72;5043068;28;20521;-56
2021/09/09 05:30:45;;;;;;;27.67;15.55;;;;;;;11.40;82.34;101634.06;5045296;28;21155;-54
2021/09/09 05:33:12;;;;;;;24.50;14.95;;;;;;;11.56;82.23;101627.19;5042118;28;20025;-57
2021/09/09 05:35:37;;;;;;;22.13;15.02;;;;;;;11.72;82.20;101635.38;5041287;28;20029;-53
2021/09/09 05:38:03;;;;;;;24.25;15.05;;;;;;;11.92;81.36;101632.34;5043678;28;20036;-56
2021/09/09 05:40:28;;;;;;;23.83;14.77;;;;;;;12.13;81.18;101635.47;5039747;28;20426;-56
2021/09/09 05:42:54;;;;;;;26.40;15.07;;;;;;;12.37;80.78;101624.41;5041432;28;20032;-57
2021/09/09 05:45:19;;;;;;;45.33;17.35;;;;;;;12.91;79.91;101624.88;5041666;28;20433;-57
2021/09/09 05:47:45;;;;;;;32.65;17.15;;;;;;;13.18;79.49;101627.00;5031124;28;20028;-57
2021/09/09 05:50:11;;;;;;;42.88;18.20;;;;;;;13.34;79.19;101634.28;5038192;28;20028;-57
2021/09/09 05:52:38;;;;;;;29.73;15.70;;;;;;;13.46;79.31;101632.28;5040417;28;20047;-57
2021/09/09 05:55:04;;;;;;;31.52;16.50;;;;;;;13.60;78.95;101635.47;5040269;28;20440;-57
2021/09/09 05:57:30;;;;;;;35.05;17.25;;;;;;;13.74;78.90;101630.56;5043518;28;20032;-56
2021/09/09 05:59:55;;;;;;;30.90;18.77;;;;;;;13.88;78.90;101631.84;5042842;28;20033;-55
2021/09/09 06:02:24;;;;;;;27.67;17.17;;;;;;;14.04;78.94;101624.78;5042442;28;20681;-58
2021/09/09 06:04:50;;;;;;;27.23;16.38;;;;;;;14.19;78.84;101620.41;5046041;28;20028;-57
2021/09/09 06:07:15;;;;;;;22.15;16.17;;;;;;;14.37;78.68;101615.78;5044655;28;20564;-57
2021/09/09 06:09:41;;;;;;;26.52;17.35;;;;;;;14.53;78.56;101620.28;5042307;28;20517;-57
2021/09/09 06:12:08;;;;;;;22.05;15.50;;;;;;;14.71;78.14;101611.03;5044284;28;20067;-56
2021/09/09 06:14:34;;;;;;;24.42;16.90;;;;;;;14.87;78.11;101615.50;5055008;28;20108;-56
2021/09/09 06:17:00;;;;;;;25.90;17.02;;;;;;;15.03;77.95;101617.28;5043619;28;20032;-57
2021/09/09 06:19:26;;;;;;;28.65;16.77;;;;;;;15.19;78.01;101612.00;5039636;28;20505;-57
2021/09/09 06:21:52;;;;;;;25.33;16.45;;;;;;;15.33;77.56;101613.22;5042410;28;20051;-57
2021/09/09 06:24:18;;;;;;;24.92;16.90;;;;;;;15.45;77.77;101608.44;5041106;28;20032;-56
2021/09/09 06:26:44;;;;;;;25.35;16.00;;;;;;;15.60;77.21;101607.75;5044841;28;20591;-57
2021/09/09 06:29:10;;;;;;;22.70;16.05;;;;;;;15.70;77.40;101605.94;5040791;28;20041;-57
2021/09/09 06:31:35;;;;;;;25.85;16.45;;;;;;;15.90;76.50;101601.72;5042641;28;20396;-57
2021/09/09 06:34:01;;;;;;;26.08;15.32;;;;;;;16.07;75.71;101594.22;5042331;28;20039;-57
2021/09/09 06:36:26;;;;;;;23.33;15.18;;;;;;;16.21;75.13;101589.16;5041176;28;20037;-56
2021/09/09 06:38:52;;;;;;;24.30;15.70;;;;;;;16.28;74.45;101593.22;5041911;28;20236;-57
2021/09/09 06:41:19;;;;;;;22.23;14.32;;;;;;;16.39;73.90;101602.19;5041278;28;20057;-56
2021/09/09 06:43:44;;;;;;;21.98;14.35;;;;;;;16.49;73.54;101601.38;5040935;28;20538;-57
2021/09/09 06:46:10;;;;;;;22.02;14.95;;;;;;;16.57;73.07;101607.09;5060448;28;20115;-56
2021/09/09 06:48:35;;;;;;;23.50;14.35;;;;;;;16.72;72.71;101598.25;5045614;28;20024;-57
2021/09/09 06:51:01;;;;;;;19.42;13.73;;;;;;;16.89;71.85;101595.28;5043622;28;20130;-58
2021/09/09 06:53:28;;;;;;;26.10;14.82;;;;;;;16.99;71.16;101598.00;5043266;28;20180;-57
2021/09/09 06:55:53;;;;;;;20.65;14.02;;;;;;;17.19;70.45;101603.41;5039639;28;20741;-57
2021/09/09 06:58:19;;;;;;;16.92;13.43;;;;;;;17.38;69.86;101600.13;5043315;28;20031;-57
2021/09/09 07:00:44;;;;;;;18.88;13.65;;;;;;;17.53;68.97;101594.69;5041715;28;20032;-58
2021/09/09 07:03:10;;;;;;;20.77;12.68;;;;;;;17.69;68.32;101601.75;5047906;28;20046;-56
2021/09/09 07:05:36;;;;;;;19.42;12.90;;;;;;;17.86;67.54;101606.03;5045199;28;20035;-58
2021/09/09 07:08:02;;;;;;;19.73;13.07;;;;;;;17.99;66.43;101600.84;5046995;28;20220;-56
2021/09/09 07:10:27;;;;;;;16.40;11.93;;;;;;;18.18;66.11;101601.03;5047742;28;20620;-57
2021/09/09 07:12:53;;;;;;;20.00;12.35;;;;;;;18.30;65.67;101600.69;5044556;28;20398;-58
2021/09/09 07:15:18;;;;;;;18.30;13.07;;;;;;;18.40;65.16;101590.63;5047479;28;20021;-56
2021/09/09 07:17:44;;;;;;;15.57;11.77;;;;;;;18.48;64.23;101600.06;5047797;28;20028;-58
2021/09/09 07:20:11;;;;;;;17.85;12.45;;;;;;;18.53;63.14;101604.66;5045610;28;20052;-58
2021/09/09 07:22:36;;;;;;;17.25;11.35;;;;;;;18.66;62.77;101601.34;5045160;28;20048;-58
2021/09/09 07:25:02;;;;;;;17.52;10.48;;;;;;;18.81;62.58;101598.53;5048056;28;20387;-56
2021/09/09 07:27:28;;;;;;;19.05;11.77;;;;;;;18.97;62.32;101589.19;5046575;28;20036;-56
2021/09/09 07:29:53;;;;;;;17.13;10.57;;;;;;;19.06;62.24;101591.31;5044358;28;20562;-58
2021/09/09 07:32:18;;;;;;;17.08;11.52;;;;;;;19.14;61.26;101593.38;5045957;28;21068;-58
2021/09/09 07:34:44;;;;;;;17.92;11.05;;;;;;;19.21;61.28;101594.69;5047752;28;20028;-57
2021/09/09 07:37:09;;;;;;;15.40;11.25;;;;;;;19.35;61.26;101583.16;5047682;28;20489;-58
2021/09/09 07:39:35;;;;;;;15.38;10.43;;;;;;;19.39;60.00;101584.19;5047340;28;20774;-61
2021/09/09 07:42:00;;;;;;;16.05;9.57;;;;;;;19.49;59.38;101582.19;5046727;28;20040;-57
2021/09/09 07:44:26;;;;;;;17.98;9.65;;;;;;;19.59;58.14;101587.56;5046670;28;20040;-59
2021/09/09 07:46:51;;;;;;;13.25;9.57;;;;;;;19.80;58.13;101585.44;5046729;28;20103;-57
2021/09/09 07:49:17;;;;;;;12.68;9.10;;;;;;;19.95;57.85;101579.00;5044091;28;20036;-58
2021/09/09 07:51:43;;;;;;;14.65;9.35;;;;;;;20.21;57.65;101574.84;5046741;28;20683;-58
2021/09/09 07:54:09;;;;;;;14.02;9.35;;;;;;;20.40;57.09;101574.06;5044170;28;20260;-58
2021/09/09 07:56:34;;;;;;;10.27;8.15;;;;;;;20.59;55.70;101579.53;5047625;28;21700;-58
2021/09/09 07:59:00;;;;;;;13.60;8.40;;;;;;;20.73;54.11;101575.75;5045635;28;20284;-56
2021/09/09 08:01:26;;;;;;;11.27;7.60;;;;;;;20.88;53.71;101573.91;5045496;28;20409;-57
2021/09/09 08:03:51;;;;;;;14.15;7.88;;;;;;;20.97;52.61;101574.84;5045770;28;20478;-57
2021/09/09 08:06:17;;;;;;;10.27;6.50;;;;;;;21.11;51.80;101575.69;5047259;28;20418;-57
2021/09/09 08:08:43;;;;;;;11.02;7.68;;;;;;;21.17;50.89;101577.22;5045269;28;20357;-58
2021/09/09 08:11:08;;;;;;;9.73;6.53;;;;;;;21.34;50.92;101576.69;5044306;28;20125;-61
2021/09/09 08:13:34;;;;;;;11.15;6.95;;;;;;;21.54;50.62;101572.75;5044809;28;20371;-57
2021/09/09 08:16:01;;;;;;;9.80;6.72;;;;;;;21.62;49.38;101564.69;5046163;28;20263;-61
2021/09/09 08:18:27;;;;;;;12.30;7.03;;;;;;;21.74;49.55;101560.69;5046493;28;20504;-62
2021/09/09 08:20:55;;;;;;;9.63;6.25;;;;;;;21.95;49.01;101562.69;5044720;28;20025;-58
2021/09/09 08:23:22;;;;;;;9.60;6.80;;;;;;;22.08;48.55;101561.06;5044969;28;20067;-58
2021/09/09 08:25:48;;;;;;;8.40;5.97;;;;;;;22.25;47.61;101560.41;5045205;28;20032;-57
2021/09/09 08:28:16;;;;;;;8.82;5.47;;;;;;;22.35;46.42;101565.66;5045816;28;20539;-59
2021/09/09 08:30:42;;;;;;;14.00;5.78;;;;;;;22.44;45.36;101561.09;5043804;28;20028;-60
2021/09/09 08:33:07;;;;;;;9.32;5.85;;;;;;;22.55;44.91;101564.38;5045372;28;20380;-60
2021/09/09 08:35:33;;;;;;;7.20;5.32;;;;;;;22.68;44.98;101568.19;5042954;28;21166;-60
2021/09/09 08:37:58;;;;;;;7.90;5.80;;;;;;;22.71;44.07;101567.56;5044311;28;20044;-59
2021/09/09 08:40:24;;;;;;;8.65;5.15;;;;;;;22.55;44.05;101562.47;5045371;28;20109;-59
2021/09/09 08:42:51;;;;;;;9.40;5.68;;;;;;;22.71;44.32;101557.44;5043422;28;20114;-58
2021/09/09 08:45:17;;;;;;;7.15;5.47;;;;;;;22.80;43.55;101563.81;5045763;28;20727;-59
2021/09/09 08:47:42;;;;;;;12.70;5.60;;;;;;;22.94;42.84;101566.47;5044008;28;20287;-60
2021/09/09 08:50:09;;;;;;;9.23;5.50;;;;;;;23.03;42.79;101572.00;5040911;28;20043;-57
2021/09/09 08:52:38;;;;;;;7.57;5.18;;;;;;;23.04;41.17;101568.97;5044868;28;20048;-58
2021/09/09 08:55:04;;;;;;;7.13;5.10;;;;;;;23.12;42.23;101565.47;5042706;28;20570;-58
2021/09/09 08:57:32;;;;;;;6.85;4.82;;;;;;;23.15;41.73;101553.91;5042814;28;20036;-57
2021/09/09 08:59:58;;;;;;;10.23;5.00;;;;;;;23.26;41.78;101561.84;5045512;28;20035;-59
2021/09/09 09:02:25;;;;;;;7.93;5.38;;;;;;;23.49;41.94;101555.19;5043495;28;20122;-56
2021/09/09 09:05:08;;;;;;;7.68;4.82;;;;;;;23.74;40.49;101551.78;5043983;28;20032;-60
2021/09/09 09:07:35;;;;;;;6.85;4.82;;;;;;;23.67;40.62;101545.97;5045297;28;20131;-56
2021/09/09 09:10:04;;;;;;;6.60;4.57;;;;;;;23.77;40.42;101544.88;5045913;28;20032;-56
2021/09/09 09:12:41;;;;;;;7.80;5.00;;;;;;;23.90;39.74;101551.34;5044123;28;21860;-57
2021/09/09 09:15:14;;;;;;;6.72;3.90;;;;;;;24.05;39.05;101545.41;5045145;28;20266;-59
2021/09/09 09:18:01;;;;;;;7.78;4.65;;;;;;;24.25;38.92;101541.28;5042225;28;20044;-59
2021/09/09 09:20:37;;;;;;;6.10;4.28;;;;;;;24.40;37.96;101541.59;5043150;28;20032;-56
2021/09/09 09:23:21;;;;;;;7.05;4.30;;;;;;;24.37;37.29;101541.44;5044035;28;20703;-56
2021/09/09 09:25:54;;;;;;;6.25;4.57;;;;;;;24.45;37.54;101531.63;5044505;28;20070;-57
2021/09/09 09:28:50;;;;;;;7.00;4.30;;;;;;;24.60;37.07;101533.88;5043949;28;21640;-57
2021/09/09 09:31:24;;;;;;;5.63;4.20;;;;;;;24.79;37.62;101537.09;5057460;28;20055;-56
2021/09/09 09:33:55;;;;;;;9.65;4.13;;;;;;;24.89;35.70;101530.44;5043980;28;22244;-56
2021/09/09 09:36:43;;;;;;;6.10;4.13;;;;;;;24.71;35.55;101533.22;5042478;28;20035;-56
2021/09/09 09:39:17;;;;;;;4.88;3.75;;;;;;;24.90;36.33;101529.31;5045802;28;20028;-57
2021/09/09 09:42:05;;;;;;;7.00;3.85;;;;;;;25.06;34.86;101530.44;5044459;28;20028;-58
2021/09/09 09:44:41;;;;;;;8.05;4.28;;;;;;;25.05;33.61;101528.03;5044289;28;20569;-57
2021/09/09 09:47:14;;;;;;;6.32;3.60;;;;;;;25.20;34.20;101522.81;5045730;28;20067;-56
2021/09/09 09:49:42;;;;;;;9.35;4.05;;;;;;;25.30;33.16;101524.38;5044902;28;20116;-56
2021/09/09 09:52:13;;;;;;;7.97;3.90;;;;;;;25.34;33.42;101524.53;5043600;28;20250;-57
2021/09/09 09:54:48;;;;;;;8.10;3.85;;;;;;;25.40;33.06;101529.50;5043739;28;20046;-56
2021/09/09 09:57:14;;;;;;;11.18;3.72;;;;;;;25.60;33.56;101523.28;5045126;28;20024;-57
2021/09/09 09:59:39;;;;;;;8.13;3.83;;;;;;;25.23;32.30;101524.91;5044783;28;20029;-57
2021/09/09 10:02:05;;;;;;;24.38;6.15;;;;;;;25.45;32.31;101521.09;5044045;28;20204;-55
2021/09/09 10:04:31;;;;;;;27.45;6.93;;;;;;;25.57;32.60;101512.97;5041042;28;20090;-57
2021/09/09 10:06:57;;;;;;;6.15;3.50;;;;;;;25.51;32.26;101516.25;5041883;28;20048;-57
2021/09/09 10:09:23;;;;;;;6.75;3.88;;;;;;;25.20;32.55;101514.59;5042611;28;20269;-57
2021/09/09 10:11:49;;;;;;;7.05;4.07;;;;;;;25.17;33.83;101496.06;5040849;28;20028;-56
2021/09/09 10:14:23;;;;;;;8.50;4.07;;;;;;;25.56;33.16;101494.91;5041483;28;20363;-57
2021/09/09 10:16:51;;;;;;;8.30;4.00;;;;;;;25.79;31.95;101508.34;5041752;28;20036;-56
2021/09/09 10:19:32;;;;;;;8.10;3.83;;;;;;;25.81;30.95;101503.31;5044490;28;21018;-57
2021/09/09 10:22:06;;;;;;;12.00;4.32;;;;;;;25.87;31.95;101491.84;5042800;28;20232;-57
2021/09/09 10:24:34;;;;;;;5.22;3.45;;;;;;;25.93;31.52;101492.44;5044378;28;20196;-56
2021/09/09 10:27:21;;;;;;;12.30;4.60;;;;;;;26.06;31.57;101501.56;5042903;28;20420;-57
2021/09/09 10:29:49;;;;;;;10.98;4.65;;;;;;;26.16;31.05;101490.16;5042631;28;20081;-57
2021/09/09 10:32:33;;;;;;;6.30;4.30;;;;;;;25.93;31.20;101492.44;5042511;28;20159;-57
2021/09/09 10:35:17;;;;;;;8.40;4.07;;;;;;;25.78;31.23;101501.25;5043659;28;20060;-57
2021/09/09 10:37:55;;;;;;;7.88;3.90;;;;;;;25.83;32.13;101493.63;5047663;28;20067;-57
2021/09/09 10:40:37;;;;;;;5.25;3.72;;;;;;;25.74;31.57;101494.81;5047000;28;20148;-57
2021/09/09 10:43:27;;;;;;;5.40;3.92;;;;;;;26.00;32.06;101495.44;5047551;28;20279;-58
2021/09/09 10:46:04;;;;;;;6.30;3.67;;;;;;;26.32;31.83;101493.09;5036721;28;20532;-58
2021/09/09 10:48:31;;;;;;;5.72;3.88;;;;;;;26.56;31.58;101487.72;5044716;28;20028;-57
2021/09/09 10:51:15;;;;;;;10.05;4.60;;;;;;;26.74;31.44;101477.34;5047808;28;20077;-56
2021/09/09 10:53:55;;;;;;;7.60;4.03;;;;;;;26.82;30.52;101470.16;5044193;28;20123;-56
2021/09/09 10:56:35;;;;;;;6.85;3.90;;;;;;;26.92;30.20;101472.47;5047148;28;20393;-57
2021/09/09 10:59:23;;;;;;;4.88;3.83;;;;;;;26.95;30.13;101460.81;5046881;28;20373;-57
2021/09/09 11:01:49;;;;;;;5.53;3.85;;;;;;;27.08;30.47;101465.19;5046935;28;20060;-57
2021/09/09 11:04:32;;;;;;;5.53;3.95;;;;;;;27.17;30.90;101463.13;5045897;28;20596;-56
2021/09/09 11:06:58;;;;;;;9.18;4.28;;;;;;;27.23;29.92;101461.75;5046854;28;20025;-56
2021/09/09 11:09:25;;;;;;;15.40;4.63;;;;;;;27.30;29.86;101459.25;5045237;28;20036;-57
2021/09/09 11:12:02;;;;;;;10.90;4.07;;;;;;;27.30;29.24;101462.00;5044676;28;21635;-57
2021/09/09 11:14:30;;;;;;;7.50;4.18;;;;;;;27.36;29.12;101454.31;5043633;28;20040;-57